Time;durP1;ratioP1;P1;durP2;ratioP2;P2;SDS_P1;SDS_P2;PMS_P1;PMS_P2;Temp;Humidity;BMP_temperature;BMP_pressure;BME280_temperature;BME280_humidity;BME280_pressure;Samples;Min_cycle;Max_cycle;Signal;HPM_P1;HPM_P2
2022/04/16 00:01:23;;;;;;;14.30;10.37;;;8.80;1.00;;;;;;5094852;28;20190;-59
2022/04/16 00:03:49;;;;;;;16.13;11.25;;;8.80;1.00;;;;;;5057492;28;1064359;-59
2022/04/16 00:06:14;;;;;;;16.53;12.10;;;8.80;1.00;;;;;;5104654;28;20194;-58
2022/04/16 00:08:40;;;;;;;17.97;11.77;;;8.80;1.00;;;;;;5098564;28;20991;-59
2022/04/16 00:11:06;;;;;;;20.07;12.50;;;8.80;1.00;;;;;;5095560;28;20217;-59
2022/04/16 00:13:32;;;;;;;18.97;12.90;;;8.80;1.00;;;;;;5109265;28;20450;-59
2022/04/16 00:15:58;;;;;;;15.37;11.00;;;8.60;1.00;;;;;;5105475;28;20191;-58
2022/04/16 00:18:24;;;;;;;14.73;10.17;;;8.50;1.00;;;;;;5104617;28;20439;-59
2022/04/16 00:20:51;;;;;;;15.30;10.70;;;8.40;1.00;;;;;;5095615;28;20437;-58
2022/04/16 00:23:19;;;;;;;14.50;8.70;;;8.40;1.00;;;;;;5099629;28;20448;-57
2022/04/16 00:25:45;;;;;;;14.77;11.47;;;8.40;1.00;;;;;;5102450;28;20473;-58
2022/04/16 00:28:11;;;;;;;14.30;10.27;;;8.50;1.00;;;;;;5101457;28;20456;-58
2022/04/16 00:30:40;;;;;;;15.37;10.70;;;8.50;1.00;;;;;;5106623;28;20436;-59
2022/04/16 00:33:12;;;;;;;12.90;10.20;;;8.50;1.00;;;;;;5099022;28;20219;-59
2022/04/16 00:35:39;;;;;;;12.00;10.20;;;8.50;1.00;;;;;;5100823;28;20444;-59
2022/04/16 00:38:05;;;;;;;13.83;10.13;;;8.40;1.00;;;;;;5103310;28;20498;-58
2022/04/16 00:40:31;;;;;;;14.10;7.77;;;8.30;1.00;;;;;;5109802;28;20431;-58
2022/04/16 00:42:58;;;;;;;14.30;8.10;;;;;;;;;;5109454;28;20178;-59
2022/04/16 00:45:25;;;;;;;11.20;7.40;;;8.00;1.00;;;;;;5092878;28;20235;-58
2022/04/16 00:47:50;;;;;;;9.97;7.57;;;7.90;1.00;;;;;;5096823;28;20456;-58
2022/04/16 00:50:16;;;;;;;8.13;7.27;;;8.00;1.00;;;;;;5102491;28;20448;-57
2022/04/16 00:52:44;;;;;;;14.30;8.30;;;8.00;1.00;;;;;;5103173;28;20207;-59
2022/04/16 00:55:10;;;;;;;7.57;5.73;;;7.70;1.00;;;;;;5108412;28;20185;-57
2022/04/16 00:57:41;;;;;;;7.43;6.50;;;7.70;1.00;;;;;;5103473;28;20440;-58
2022/04/16 01:00:08;;;;;;;7.57;5.90;;;7.60;1.00;;;;;;5102589;28;21179;-58
2022/04/16 01:02:37;;;;;;;6.97;6.27;;;7.60;1.00;;;;;;5105594;28;20444;-58
2022/04/16 01:05:04;;;;;;;7.23;5.70;;;7.50;1.00;;;;;;5107302;28;20479;-58
2022/04/16 01:07:31;;;;;;;9.10;6.07;;;;;;;;;;5100774;28;20460;-59
2022/04/16 01:09:57;;;;;;;6.03;4.90;;;7.70;1.00;;;;;;5105236;28;20448;-59
2022/04/16 01:12:22;;;;;;;10.33;5.73;;;7.80;1.00;;;;;;5104964;28;20487;-58
2022/04/16 01:14:50;;;;;;;4.90;4.10;;;7.80;1.00;;;;;;5105205;28;20447;-58
2022/04/16 01:17:16;;;;;;;7.90;5.13;;;7.40;1.00;;;;;;5105874;28;20178;-58
2022/04/16 01:19:42;;;;;;;10.17;5.87;;;7.40;1.00;;;;;;5104351;28;20440;-58
2022/04/16 01:22:13;;;;;;;7.10;6.20;;;7.40;1.00;;;;;;5092524;28;20460;-59
2022/04/16 01:24:43;;;;;;;6.43;4.97;;;5.70;1.00;;;;;;5107882;28;20451;-58
2022/04/16 01:27:09;;;;;;;9.63;5.40;;;7.40;1.00;;;;;;5102788;28;20444;-58
2022/04/16 01:29:35;;;;;;;6.50;5.03;;;7.40;1.00;;;;;;5102729;28;20995;-57
2022/04/16 01:32:00;;;;;;;7.60;5.23;;;7.40;1.00;;;;;;5100094;28;20902;-59
2022/04/16 01:34:26;;;;;;;11.07;5.20;;;7.50;1.00;;;;;;5094089;28;20185;-59
2022/04/16 01:36:52;;;;;;;7.50;6.30;;;7.50;1.00;;;;;;5101810;28;20292;-58
2022/04/16 01:39:18;;;;;;;9.23;6.00;;;8.10;1.00;;;;;;5100615;28;20183;-59
2022/04/16 01:41:43;;;;;;;6.23;5.60;;;7.60;1.00;;;;;;5103655;28;21005;-58
2022/04/16 01:44:09;;;;;;;8.40;5.50;;;7.60;1.00;;;;;;5091274;28;20179;-58
2022/04/16 01:46:35;;;;;;;9.10;5.67;;;7.60;1.00;;;;;;5093052;28;20261;-58
2022/04/16 01:49:01;;;;;;;7.73;5.50;;;7.50;1.00;;;;;;5102302;27;20209;-58
2022/04/16 01:51:26;;;;;;;6.67;4.57;;;7.60;1.00;;;;;;5101959;28;20456;-59
2022/04/16 01:53:52;;;;;;;8.80;5.33;;;7.60;1.00;;;;;;5103747;28;20186;-59
2022/04/16 01:56:17;;;;;;;6.70;4.77;;;7.40;1.00;;;;;;5102823;28;20221;-59
2022/04/16 01:58:44;;;;;;;5.90;4.40;;;;;;;;;;5101904;28;20269;-58
2022/04/16 02:01:10;;;;;;;5.27;4.77;;;7.60;1.00;;;;;;5101154;28;20189;-59
2022/04/16 02:03:36;;;;;;;4.40;3.47;;;7.50;1.00;;;;;;5102348;28;20471;-57
2022/04/16 02:06:05;;;;;;;4.20;3.80;;;7.30;1.00;;;;;;5104066;28;20487;-58
2022/04/16 02:08:30;;;;;;;3.30;2.80;;;7.10;1.00;;;;;;5104532;28;20439;-59
2022/04/16 02:10:56;;;;;;;4.27;3.00;;;7.10;1.00;;;;;;5106114;28;20466;-58
2022/04/16 02:13:22;;;;;;;3.20;2.93;;;7.10;1.00;;;;;;5104368;28;20202;-58
2022/04/16 02:15:47;;;;;;;3.80;2.77;;;7.10;1.00;;;;;;5100415;28;20183;-58
2022/04/16 02:18:13;;;;;;;2.77;2.57;;;7.00;1.00;;;;;;5100729;28;20194;-57
2022/04/16 02:20:41;;;;;;;6.00;2.70;;;;;;;;;;5098119;28;20190;-59
2022/04/16 02:23:08;;;;;;;3.10;2.03;;;6.60;1.00;;;;;;5100732;28;20196;-58
2022/04/16 02:25:33;;;;;;;3.20;2.73;;;6.60;1.00;;;;;;5102388;28;20454;-58
2022/04/16 02:27:59;;;;;;;4.07;3.30;;;;;;;;;;5100365;28;20467;-57
2022/04/16 02:30:25;;;;;;;2.60;2.40;;;6.50;1.00;;;;;;5101371;28;20847;-57
2022/04/16 02:32:55;;;;;;;3.13;2.70;;;6.60;1.00;;;;;;5104384;28;20475;-58
2022/04/16 02:35:22;;;;;;;2.13;1.93;;;6.60;1.00;;;;;;5102565;28;20236;-57
2022/04/16 02:37:48;;;;;;;2.70;1.97;;;6.60;1.00;;;;;;5100645;28;20467;-57
2022/04/16 02:40:14;;;;;;;4.13;2.50;;;6.60;1.00;;;;;;5094375;28;20471;-58
2022/04/16 02:42:43;;;;;;;3.10;2.80;;;6.60;1.00;;;;;;5099472;28;20178;-57
2022/04/16 02:47:58;;;;;;;2.97;2.67;;;6.60;1.00;;;;;;5100631;28;20502;-58
2022/04/16 02:50:25;;;;;;;3.73;3.07;;;6.70;1.00;;;;;;5100667;28;20451;-57
2022/04/16 02:52:51;;;;;;;3.03;2.73;;;6.70;1.00;;;;;;5100915;28;20467;-57
2022/04/16 02:55:17;;;;;;;4.70;3.30;;;6.70;1.00;;;;;;5104297;28;20444;-57
2022/04/16 02:57:46;;;;;;;4.43;3.33;;;6.60;1.00;;;;;;5106335;28;20960;-59
2022/04/16 03:00:13;;;;;;;4.57;3.37;;;6.60;1.00;;;;;;5107717;28;20255;-59
2022/04/16 03:02:39;;;;;;;3.43;2.93;;;;;;;;;;5105039;28;20457;-59
2022/04/16 03:05:09;;;;;;;4.43;2.90;;;6.40;1.00;;;;;;5104714;28;20463;-57
2022/04/16 03:07:35;;;;;;;7.07;3.83;;;6.30;1.00;;;;;;5104778;28;20474;-57
2022/04/16 03:10:02;;;;;;;4.40;3.43;;;6.30;1.00;;;;;;5106492;28;20448;-58
2022/04/16 03:12:28;;;;;;;4.40;2.50;;;6.30;1.00;;;;;;5106404;28;20507;-59
2022/04/16 03:17:39;;;;;;;5.70;3.50;;;6.30;1.00;;;;;;5103588;28;20483;-58
2022/04/16 03:20:06;;;;;;;5.47;2.70;;;6.30;1.00;;;;;;5107339;28;20960;-60
2022/04/16 03:22:36;;;;;;;2.80;2.27;;;6.30;1.00;;;;;;5100402;28;20583;-57
2022/04/16 03:25:09;;;;;;;6.13;3.83;;;6.30;1.00;;;;;;5094462;28;20550;-58
2022/04/16 03:27:37;;;;;;;4.70;2.60;;;6.30;1.00;;;;;;5106072;28;20476;-58
2022/04/16 03:30:03;;;;;;;3.10;2.17;;;6.20;1.00;;;;;;5102057;28;20444;-59
2022/04/16 03:32:29;;;;;;;4.57;3.30;;;6.20;1.00;;;;;;5104240;28;20518;-58
2022/04/16 03:34:56;;;;;;;4.57;3.20;;;6.20;1.00;;;;;;5106384;28;20580;-58
2022/04/16 03:37:24;;;;;;;2.97;2.67;;;6.20;1.00;;;;;;5106477;28;20439;-59
2022/04/16 03:39:50;;;;;;;4.67;4.10;;;6.30;1.00;;;;;;5106573;28;20436;-58
2022/04/16 03:42:18;;;;;;;8.00;3.70;;;6.10;1.00;;;;;;5104850;28;20448;-59
2022/04/16 03:44:43;;;;;;;2.77;2.27;;;6.10;1.00;;;;;;5104898;28;20454;-58
2022/04/16 03:47:10;;;;;;;3.10;2.83;;;6.00;1.00;;;;;;5104980;28;20444;-58
2022/04/16 03:49:37;;;;;;;3.73;2.40;;;6.00;1.00;;;;;;5106576;28;20214;-58
2022/04/16 03:52:03;;;;;;;3.77;2.73;;;5.90;1.00;;;;;;5106594;28;20472;-57
2022/04/16 03:59:59;;;;;;;4.17;2.30;;;6.00;1.00;;;;;;5099432;28;20450;-59
2022/04/16 04:02:28;;;;;;;3.60;2.50;;;5.90;1.00;;;;;;5099512;28;20447;-58
2022/04/16 04:04:55;;;;;;;2.93;1.93;;;5.90;1.00;;;;;;5109562;28;20506;-59
2022/04/16 04:07:20;;;;;;;3.50;2.50;;;5.80;1.00;;;;;;5104533;28;20447;-57
2022/04/16 04:09:46;;;;;;;4.73;2.80;;;5.80;1.00;;;;;;5103531;28;20807;-56
2022/04/16 04:12:13;;;;;;;3.10;2.80;;;5.70;1.00;;;;;;5104076;28;20205;-57
2022/04/16 04:14:40;;;;;;;6.53;3.40;;;5.70;1.00;;;;;;5105567;28;20472;-58
2022/04/16 04:17:09;;;;;;;3.60;2.60;;;5.70;1.00;;;;;;5099818;28;20801;-58
2022/04/16 04:19:37;;;;;;;3.30;2.40;;;5.90;1.00;;;;;;5103775;28;20950;-57
2022/04/16 04:22:08;;;;;;;4.43;2.90;;;6.00;1.00;;;;;;5104856;28;20451;-59
2022/04/16 04:24:34;;;;;;;3.10;2.80;;;;;;;;;;5105341;28;20542;-58
2022/04/16 04:27:00;;;;;;;3.97;3.20;;;5.70;1.00;;;;;;5103258;28;20532;-58
2022/04/16 04:29:27;;;;;;;4.57;2.70;;;5.60;1.00;;;;;;5103210;28;20432;-57
2022/04/16 04:31:53;;;;;;;4.60;3.20;;;;;;;;;;5095159;28;20472;-59
2022/04/16 04:34:19;;;;;;;4.90;3.47;;;5.70;1.00;;;;;;5104438;28;20448;-58
2022/04/16 04:36:45;;;;;;;3.97;3.57;;;5.70;1.00;;;;;;5103578;28;20451;-58
2022/04/16 04:39:12;;;;;;;5.57;4.07;;;;;;;;;;5098043;28;20182;-57
2022/04/16 04:41:38;;;;;;;3.70;3.30;;;5.50;1.00;;;;;;5106091;28;20643;-58
2022/04/16 04:44:04;;;;;;;6.07;4.47;;;5.60;1.00;;;;;;5109432;28;20454;-58
2022/04/16 04:46:30;;;;;;;5.40;4.90;;;5.60;1.00;;;;;;5111516;28;20816;-58
2022/04/16 04:48:56;;;;;;;6.43;5.83;;;5.60;1.00;;;;;;5093955;28;20456;-58
2022/04/16 04:51:21;;;;;;;7.47;6.67;;;5.60;1.00;;;;;;5098063;28;20256;-59
2022/04/16 04:53:47;;;;;;;7.80;5.80;;;;;;;;;;5102478;28;20201;-58
2022/04/16 04:56:13;;;;;;;6.40;5.10;;;5.50;1.00;;;;;;5103515;28;20639;-58
2022/04/16 04:58:38;;;;;;;6.83;5.80;;;5.40;1.00;;;;;;5107870;28;20536;-58
2022/04/16 05:01:04;;;;;;;4.63;4.23;;;;;;;;;;5103335;28;20182;-57
2022/04/16 05:03:30;;;;;;;6.10;5.50;;;5.50;1.00;;;;;;5104413;28;21515;-57
2022/04/16 05:05:55;;;;;;;6.10;5.50;;;5.60;1.00;;;;;;5100263;28;20451;-57
2022/04/16 05:08:21;;;;;;;7.00;6.30;;;5.70;1.00;;;;;;5103923;28;20194;-58
2022/04/16 05:10:46;;;;;;;6.30;4.97;;;;;;;;;;5102261;28;20268;-58
2022/04/16 05:13:12;;;;;;;7.07;5.63;;;6.00;1.00;;;;;;5103478;28;20259;-59
2022/04/16 05:15:38;;;;;;;5.90;5.30;;;6.20;1.00;;;;;;5100668;28;20448;-58
2022/04/16 05:18:03;;;;;;;6.00;5.37;;;6.20;1.00;;;;;;5102349;28;20190;-58
2022/04/16 05:20:29;;;;;;;6.60;6.00;;;6.00;1.00;;;;;;5101540;28;20194;-57
2022/04/16 05:22:54;;;;;;;6.27;5.77;;;5.90;1.00;;;;;;5101567;28;20212;-57
2022/04/16 05:25:20;;;;;;;5.40;5.00;;;5.70;1.00;;;;;;5103195;28;20190;-57
2022/04/16 05:27:46;;;;;;;6.17;5.57;;;;;;;;;;5101699;28;20259;-57
2022/04/16 05:30:22;;;;;;;5.57;5.10;;;5.70;1.00;;;;;;5100618;28;20185;-58
2022/04/16 05:32:50;;;;;;;5.73;5.20;;;5.70;1.00;;;;;;5096219;28;20575;-58
2022/04/16 05:35:16;;;;;;;6.03;5.40;;;;;;;;;;5103522;28;20440;-58
2022/04/16 05:37:42;;;;;;;5.83;5.33;;;5.70;1.00;;;;;;5102113;28;20952;-57
2022/04/16 05:40:09;;;;;;;6.70;5.63;;;5.70;1.00;;;;;;5102209;28;20439;-57
2022/04/16 05:42:42;;;;;;;7.20;5.37;;;5.70;1.00;;;;;;5103633;28;20505;-57
2022/04/16 05:45:09;;;;;;;5.30;4.80;;;5.70;1.00;;;;;;5105793;28;20816;-59
2022/04/16 05:47:35;;;;;;;4.80;4.40;;;;;;;;;;5101959;28;20447;-58
2022/04/16 05:50:01;;;;;;;6.50;5.50;;;;;;;;;;5102337;28;20443;-57
2022/04/16 05:52:27;;;;;;;4.87;3.40;;;5.40;1.00;;;;;;5094620;28;20495;-57
2022/04/16 05:54:53;;;;;;;4.67;3.63;;;5.20;1.00;;;;;;5105090;28;20640;-59
2022/04/16 05:57:21;;;;;;;5.27;4.37;;;4.90;1.00;;;;;;5106123;28;20522;-58
2022/04/16 05:59:49;;;;;;;4.97;4.47;;;5.00;1.00;;;;;;5100937;28;20539;-57
2022/04/16 06:02:14;;;;;;;5.50;5.00;;;5.00;1.00;;;;;;5100577;28;20445;-57
2022/04/16 06:04:40;;;;;;;5.50;4.97;;;5.10;1.00;;;;;;5100421;28;20480;-56
2022/04/16 06:07:05;;;;;;;6.30;4.70;;;5.20;1.00;;;;;;5095214;28;20220;-58
2022/04/16 06:09:31;;;;;;;8.27;5.33;;;5.30;1.00;;;;;;5103564;28;20646;-59
2022/04/16 06:12:04;;;;;;;6.20;4.97;;;5.40;1.00;;;;;;5101280;28;20202;-60
2022/04/16 06:14:30;;;;;;;4.77;3.93;;;5.50;1.00;;;;;;5108663;28;20185;-60
2022/04/16 06:16:56;;;;;;;4.50;4.10;;;5.50;1.00;;;;;;5108499;28;20435;-58
2022/04/16 06:19:21;;;;;;;5.50;5.00;;;5.60;1.00;;;;;;5098124;28;20516;-58
2022/04/16 06:21:47;;;;;;;3.97;3.60;;;5.40;1.00;;;;;;5098869;28;20245;-58
2022/04/16 06:24:12;;;;;;;3.93;3.60;;;5.20;1.00;;;;;;5098609;28;20178;-58
2022/04/16 06:26:38;;;;;;;3.07;2.77;;;5.30;1.00;;;;;;5104096;28;20217;-58
2022/04/16 06:29:05;;;;;;;3.23;2.40;;;5.20;1.00;;;;;;5099529;28;20265;-59
2022/04/16 06:31:30;;;;;;;3.43;3.13;;;5.20;1.00;;;;;;5103045;28;20178;-57
2022/04/16 06:33:56;;;;;;;3.17;2.93;;;5.40;1.00;;;;;;5103370;28;20867;-58
2022/04/16 06:36:21;;;;;;;3.83;3.13;;;5.60;1.00;;;;;;5104653;28;20270;-57
2022/04/16 06:38:47;;;;;;;3.20;2.80;;;5.80;1.00;;;;;;5108929;28;20635;-57
2022/04/16 06:41:12;;;;;;;3.57;3.27;;;6.10;1.00;;;;;;5102586;28;20254;-60
2022/04/16 06:43:38;;;;;;;5.80;3.17;;;6.10;1.00;;;;;;5104967;28;20551;-58
2022/04/16 06:46:06;;;;;;;3.10;2.90;;;6.50;1.00;;;;;;5101393;28;20210;-60
2022/04/16 06:48:32;;;;;;;3.17;2.80;;;6.40;1.00;;;;;;5095804;28;20175;-59
2022/04/16 06:50:57;;;;;;;2.40;2.20;;;6.30;1.00;;;;;;5099889;28;21100;-59
2022/04/16 06:53:26;;;;;;;2.80;2.60;;;6.20;1.00;;;;;;5096297;28;20212;-59
2022/04/16 06:55:51;;;;;;;3.27;2.83;;;6.30;1.00;;;;;;5108887;28;20227;-59
2022/04/16 06:58:17;;;;;;;3.30;2.83;;;6.40;1.00;;;;;;5106088;28;20437;-58
2022/04/16 07:00:42;;;;;;;4.23;2.60;;;6.70;1.00;;;;;;5104370;28;20804;-59
2022/04/16 07:03:08;;;;;;;3.00;2.67;;;6.90;1.00;;;;;;5104637;28;20194;-58
2022/04/16 07:05:34;;;;;;;2.97;2.77;;;10.10;1.00;;;;;;5108170;28;20192;-59
2022/04/16 07:08:00;;;;;;;3.17;2.87;;;;;;;;;;5103471;28;20225;-59
2022/04/16 07:10:25;;;;;;;3.80;2.63;;;6.80;1.00;;;;;;5100186;28;20544;-59
2022/04/16 07:12:51;;;;;;;2.73;2.50;;;6.60;1.00;;;;;;5106578;28;20870;-58
2022/04/16 07:15:17;;;;;;;2.40;2.20;;;6.70;1.00;;;;;;5101364;28;20601;-57
2022/04/16 07:17:45;;;;;;;4.37;3.10;;;6.60;1.00;;;;;;5104411;28;20442;-60
2022/04/16 07:20:11;;;;;;;3.30;3.00;;;6.80;1.00;;;;;;5105839;28;20727;-58
2022/04/16 07:22:37;;;;;;;2.50;2.20;;;6.90;1.00;;;;;;5103768;28;20529;-58
2022/04/16 07:25:06;;;;;;;2.77;2.50;;;6.90;1.00;;;;;;5101035;28;20505;-59
2022/04/16 07:27:32;;;;;;;2.63;2.00;;;7.10;1.00;;;;;;5096472;28;20445;-59
2022/04/16 07:29:59;;;;;;;2.90;2.10;;;7.00;1.00;;;;;;5113362;28;20971;-59
2022/04/16 07:32:26;;;;;;;2.60;2.40;;;7.30;1.00;;;;;;5112331;28;20201;-58
2022/04/16 07:34:52;;;;;;;2.50;2.30;;;;;;;;;;5107061;28;20443;-60
2022/04/16 07:37:18;;;;;;;2.70;2.03;;;7.60;1.00;;;;;;5094030;28;20914;-59
2022/04/16 07:39:43;;;;;;;2.37;2.10;;;7.70;1.00;;;;;;5099806;28;20459;-58
2022/04/16 07:42:08;;;;;;;3.27;2.27;;;7.70;1.00;;;;;;5106917;28;20223;-58
2022/04/16 07:44:35;;;;;;;4.37;2.20;;;8.00;1.00;;;;;;5108665;28;20269;-59
2022/04/16 07:47:00;;;;;;;3.27;1.87;;;8.30;1.00;;;;;;5107484;28;20633;-59
2022/04/16 07:49:26;;;;;;;2.07;1.60;;;8.60;1.00;;;;;;5111616;28;20438;-58
2022/04/16 07:51:51;;;;;;;3.33;2.00;;;8.60;1.00;;;;;;5099179;28;20248;-58
2022/04/16 07:54:17;;;;;;;4.33;1.90;;;8.40;1.00;;;;;;5112252;28;20650;-63
2022/04/16 07:56:43;;;;;;;1.90;1.70;;;7.70;1.00;;;;;;5111871;27;20842;-57
2022/04/16 07:59:08;;;;;;;1.70;1.60;;;7.60;1.00;;;;;;5111120;28;20282;-58
2022/04/16 08:01:34;;;;;;;2.27;1.80;;;7.60;1.00;;;;;;5100616;28;20210;-59
2022/04/16 08:03:59;;;;;;;3.70;1.97;;;8.00;1.00;;;;;;5101118;28;20221;-58
2022/04/16 08:06:25;;;;;;;4.07;3.13;;;8.30;1.00;;;;;;5103416;28;20178;-58
2022/04/16 08:08:52;;;;;;;3.33;2.43;;;;;;;;;;5098883;28;20257;-59
2022/04/16 08:11:18;;;;;;;4.33;3.63;;;8.70;1.00;;;;;;5104474;28;20178;-59
2022/04/16 08:13:44;;;;;;;3.20;2.90;;;;;;;;;;5102767;28;20442;-59
2022/04/16 08:16:09;;;;;;;2.47;2.20;;;7.90;1.00;;;;;;5100419;28;20227;-62
2022/04/16 08:18:35;;;;;;;4.43;3.30;;;8.50;1.00;;;;;;5109448;28;20455;-59
2022/04/16 08:21:00;;;;;;;5.20;3.00;;;9.00;1.00;;;;;;5107182;28;20536;-57
2022/04/16 08:23:26;;;;;;;2.00;1.90;;;9.10;1.00;;;;;;5102097;28;20189;-57
2022/04/16 08:25:52;;;;;;;6.70;2.80;;;9.20;1.00;;;;;;5105695;28;20206;-58
2022/04/16 08:28:18;;;;;;;2.37;2.17;;;9.50;1.00;;;;;;5099844;28;20848;-59
2022/04/16 08:30:44;;;;;;;4.87;2.60;;;9.60;1.00;;;;;;5099623;28;20178;-59
2022/04/16 08:33:14;;;;;;;2.63;2.43;;;9.40;1.00;;;;;;5100679;28;20553;-59
2022/04/16 08:35:42;;;;;;;2.47;2.27;;;9.40;1.00;;;;;;5112054;28;20174;-59
2022/04/16 08:38:09;;;;;;;2.67;2.43;;;8.90;1.00;;;;;;5104109;28;20444;-59
2022/04/16 08:40:34;;;;;;;2.50;2.30;;;9.20;1.00;;;;;;5103317;28;20516;-58
2022/04/16 08:43:00;;;;;;;3.10;2.80;;;;;;;;;;5111398;28;21254;-59
2022/04/16 08:45:30;;;;;;;2.87;2.60;;;9.70;1.00;;;;;;5111499;28;20186;-58
2022/04/16 08:47:57;;;;;;;2.60;2.20;;;9.80;1.00;;;;;;5110659;28;20451;-59
2022/04/16 08:50:24;;;;;;;5.23;1.90;;;10.70;1.00;;;;;;5103511;28;20447;-59
2022/04/16 08:52:50;;;;;;;1.73;1.63;;;10.30;1.00;;;;;;5102014;28;20463;-59
2022/04/16 08:55:16;;;;;;;1.67;1.57;;;9.90;1.00;;;;;;5108582;28;20869;-58
2022/04/16 08:57:41;;;;;;;1.73;1.60;;;10.20;1.00;;;;;;5104304;28;20493;-58
2022/04/16 09:00:09;;;;;;;1.73;1.63;;;10.20;1.00;;;;;;5103097;28;20182;-58
2022/04/16 09:02:35;;;;;;;2.90;1.90;;;10.20;1.00;;;;;;5101163;28;20269;-58
2022/04/16 09:05:09;;;;;;;2.37;2.03;;;10.40;1.00;;;;;;5111037;28;20552;-59
2022/04/16 09:07:49;;;;;;;3.03;1.83;;;10.10;1.00;;;;;;5095725;28;20444;-60
2022/04/16 09:10:16;;;;;;;4.27;1.80;;;10.20;1.00;;;;;;5096948;28;20447;-58
2022/04/16 09:12:42;;;;;;;2.53;1.90;;;;;;;;;;5099691;28;20456;-58
2022/04/16 09:15:09;;;;;;;1.80;1.70;;;10.60;1.00;;;;;;5108859;28;21395;-58
2022/04/16 09:17:36;;;;;;;2.03;1.90;;;10.80;1.00;;;;;;5105708;28;20938;-59
2022/04/16 09:20:13;;;;;;;3.20;1.90;;;10.50;1.00;;;;;;5109807;28;20446;-59
2022/04/16 09:22:40;;;;;;;4.13;2.30;;;10.00;1.00;;;;;;5106755;28;20444;-58
2022/04/16 09:25:19;;;;;;;2.90;1.60;;;9.60;1.00;;;;;;5098508;28;20440;-58
2022/04/16 09:27:52;;;;;;;2.47;2.27;;;9.20;1.00;;;;;;5092252;28;20543;-59
2022/04/16 09:30:30;;;;;;;1.83;1.73;;;9.20;1.00;;;;;;5109497;28;20462;-60
2022/04/16 09:32:57;;;;;;;1.73;1.63;;;9.50;1.00;;;;;;5098641;28;20466;-59
2022/04/16 09:35:27;;;;;;;2.30;2.00;;;9.60;1.00;;;;;;5096154;28;20440;-58
2022/04/16 09:37:57;;;;;;;2.53;1.63;;;9.90;1.00;;;;;;5105911;28;20468;-59
2022/04/16 09:40:30;;;;;;;3.57;2.00;;;9.80;1.00;;;;;;5100888;28;20431;-58
2022/04/16 09:42:59;;;;;;;1.57;1.47;;;10.50;1.00;;;;;;5108867;28;20515;-59
2022/04/16 09:45:25;;;;;;;4.50;1.53;;;10.60;1.00;;;;;;5107841;28;20970;-58
2022/04/16 09:47:52;;;;;;;1.80;1.70;;;11.50;1.00;;;;;;5110187;28;20439;-59
2022/04/16 09:50:19;;;;;;;2.30;1.63;;;11.20;1.00;;;;;;5094442;28;20462;-58
2022/04/16 09:52:51;;;;;;;2.77;1.87;;;10.70;1.00;;;;;;5104741;28;20468;-59
2022/04/16 09:55:20;;;;;;;1.90;1.57;;;10.00;1.00;;;;;;5108833;28;20435;-59
2022/04/16 09:57:49;;;;;;;2.50;1.87;;;9.60;1.00;;;;;;5101677;28;20588;-58
2022/04/16 10:00:17;;;;;;;2.10;1.80;;;9.70;1.00;;;;;;5099860;28;20949;-59
2022/04/16 10:02:43;;;;;;;2.03;1.83;;;10.20;1.00;;;;;;5099083;28;20450;-58
2022/04/16 10:05:10;;;;;;;2.20;1.60;;;10.30;1.00;;;;;;5104002;28;20469;-59
2022/04/16 10:07:37;;;;;;;2.40;2.20;;;10.60;1.00;;;;;;5104963;28;20532;-59
2022/04/16 10:10:06;;;;;;;1.90;1.60;;;10.70;1.00;;;;;;5104102;28;20440;-60
2022/04/16 10:15:22;;;;;;;2.63;2.07;;;10.90;1.00;;;;;;5106244;28;20481;-60
2022/04/16 10:17:49;;;;;;;1.40;1.30;;;11.40;1.00;;;;;;5105552;28;20526;-60
2022/04/16 10:20:17;;;;;;;2.23;2.00;;;12.10;1.00;;;;;;5105093;28;20480;-58
2022/04/16 10:22:58;;;;;;;1.87;1.50;;;16.90;1.00;;;;;;5111448;28;20459;-59
2022/04/16 10:25:35;;;;;;;3.33;1.90;;;12.70;1.00;;;;;;5103376;28;20436;-59
2022/04/16 10:28:09;;;;;;;2.37;1.53;;;13.50;1.00;;;;;;5106883;28;20512;-59
2022/04/16 10:30:38;;;;;;;1.67;1.57;;;13.90;1.00;;;;;;5106585;28;20432;-59
2022/04/16 10:33:19;;;;;;;2.23;1.60;;;13.70;1.00;;;;;;5103086;27;20525;-59
2022/04/16 10:35:58;;;;;;;2.37;1.30;;;13.60;1.00;;;;;;5103780;28;22212;-59
2022/04/16 10:38:38;;;;;;;3.13;2.10;;;13.40;1.00;;;;;;5105940;28;20439;-58
2022/04/16 10:41:15;;;;;;;1.97;1.70;;;12.50;1.00;;;;;;5107643;28;20435;-59
2022/04/16 10:43:50;;;;;;;1.50;1.40;;;12.70;1.00;;;;;;5104754;28;20522;-58
2022/04/16 10:46:16;;;;;;;2.20;1.33;;;12.80;1.00;;;;;;5103004;28;20439;-60
2022/04/16 10:48:44;;;;;;;2.10;1.50;;;13.00;1.00;;;;;;5108631;28;20444;-57
2022/04/16 10:51:09;;;;;;;2.40;1.90;;;12.90;1.00;;;;;;5108979;28;20194;-59
2022/04/16 10:53:37;;;;;;;2.20;1.37;;;12.40;1.00;;;;;;5101267;28;20490;-58
2022/04/16 10:56:09;;;;;;;2.37;2.17;;;11.70;1.00;;;;;;5105158;28;20250;-57
2022/04/16 10:58:36;;;;;;;1.47;1.37;;;11.50;1.00;;;;;;5111567;28;20440;-58
2022/04/16 11:01:28;;;;;;;4.10;1.67;;;11.40;1.00;;;;;;5112939;28;20922;-59
2022/04/16 11:03:55;;;;;;;2.53;1.70;;;11.50;1.00;;;;;;5094980;28;20842;-58
2022/04/16 11:06:21;;;;;;;1.70;1.37;;;;;;;;;;5102091;28;20454;-57
2022/04/16 11:08:47;;;;;;;2.13;1.67;;;12.40;1.00;;;;;;5104952;28;20447;-58
2022/04/16 11:11:14;;;;;;;1.33;1.23;;;12.60;1.00;;;;;;5105414;28;20516;-59
2022/04/16 11:13:42;;;;;;;2.47;1.40;;;12.60;1.00;;;;;;5111733;28;20209;-58
2022/04/16 11:16:08;;;;;;;1.63;1.53;;;12.20;1.00;;;;;;5106568;28;20445;-59
2022/04/16 11:18:45;;;;;;;1.70;1.40;;;12.10;1.00;;;;;;5095524;28;20456;-58
2022/04/16 11:21:13;;;;;;;2.40;1.37;;;12.60;1.00;;;;;;5102261;28;20909;-59
2022/04/16 11:23:47;;;;;;;2.90;1.60;;;12.70;1.00;;;;;;5094713;28;20447;-58
2022/04/16 11:34:30;;;;;;;1.63;1.30;;;;;;;;;;5093097;28;20443;-59
2022/04/16 11:36:56;;;;;;;1.10;1.10;;;12.40;1.00;;;;;;5092978;28;20514;-58
2022/04/16 11:39:24;;;;;;;2.10;1.80;;;12.40;1.00;;;;;;5093005;28;20993;-57
2022/04/16 11:41:54;;;;;;;2.10;1.57;;;12.30;1.00;;;;;;5092515;28;20425;-58
2022/04/16 11:44:31;;;;;;;2.30;1.40;;;12.50;1.00;;;;;;5092767;28;20835;-57
2022/04/16 11:46:59;;;;;;;2.13;1.87;;;13.00;1.00;;;;;;5092594;28;20447;-58
2022/04/16 11:49:25;;;;;;;2.37;2.00;;;13.10;1.00;;;;;;5092573;28;20433;-58
2022/04/16 11:51:51;;;;;;;1.97;1.77;;;13.00;1.00;;;;;;5092064;28;21038;-57
2022/04/16 11:54:27;;;;;;;4.23;1.53;;;12.90;1.00;;;;;;5092409;28;20182;-58
2022/04/16 11:56:54;;;;;;;1.60;1.50;;;12.50;1.00;;;;;;5092448;28;20770;-59
2022/04/16 11:59:27;;;;;;;14.80;8.20;;;12.40;1.00;;;;;;5092575;28;20538;-57
2022/04/16 12:02:03;;;;;;;2.53;1.73;;;12.40;1.00;;;;;;5092323;28;20433;-57
2022/04/16 12:04:42;;;;;;;2.33;1.60;;;12.80;1.00;;;;;;5092380;28;20475;-58
2022/04/16 12:07:16;;;;;;;3.07;1.53;;;13.00;1.00;;;;;;5104641;28;20432;-57
2022/04/16 12:09:49;;;;;;;3.70;1.83;;;13.20;1.00;;;;;;5112516;28;20550;-59
2022/04/16 12:12:22;;;;;;;1.83;1.73;;;13.10;1.00;;;;;;5112756;28;20458;-58
2022/04/16 12:14:52;;;;;;;1.80;1.50;;;13.40;1.00;;;;;;5112324;28;20519;-59
2022/04/16 12:17:29;;;;;;;3.40;1.83;;;13.40;1.00;;;;;;5112576;28;20468;-58
2022/04/16 12:20:06;;;;;;;2.00;1.30;;;12.90;1.00;;;;;;5112195;28;20550;-58
2022/04/16 12:22:33;;;;;;;3.53;1.33;;;12.70;1.00;;;;;;5112517;28;20510;-59
2022/04/16 12:25:11;;;;;;;1.57;1.43;;;12.50;1.00;;;;;;5101671;28;20446;-58
2022/04/16 12:27:47;;;;;;;1.83;1.20;;;12.70;1.00;;;;;;5091297;28;20953;-59
2022/04/16 12:30:14;;;;;;;2.90;1.63;;;12.60;1.00;;;;;;5092070;28;20447;-58
2022/04/16 12:32:40;;;;;;;2.83;1.33;;;;;;;;;;5091858;28;20460;-58
2022/04/16 12:35:06;;;;;;;2.30;1.30;;;13.10;1.00;;;;;;5091704;28;20437;-58
2022/04/16 12:37:31;;;;;;;1.30;1.10;;;13.30;1.00;;;;;;5091974;28;20492;-58
2022/04/16 12:39:57;;;;;;;1.30;1.20;;;13.30;1.00;;;;;;5091771;28;20459;-57
2022/04/16 12:42:22;;;;;;;1.50;1.10;;;13.20;1.00;;;;;;5092009;28;20194;-59
2022/04/16 12:44:48;;;;;;;1.97;1.40;;;;;;;;;;5091752;28;20647;-58
2022/04/16 12:47:15;;;;;;;2.80;1.07;;;13.70;1.00;;;;;;5091459;28;20195;-60
2022/04/16 12:49:41;;;;;;;2.63;1.07;;;;;;;;;;5091617;28;20436;-58
2022/04/16 12:52:07;;;;;;;1.80;1.30;;;12.60;1.00;;;;;;5091312;28;20461;-57
2022/04/16 12:54:35;;;;;;;1.43;1.33;;;;;;;;;;5105978;28;21123;-59
2022/04/16 12:57:01;;;;;;;0.93;0.77;;;13.10;1.00;;;;;;5111440;28;20432;-59
2022/04/16 12:59:27;;;;;;;1.70;1.10;;;13.20;1.00;;;;;;5110265;28;20434;-59
2022/04/16 13:01:52;;;;;;;1.40;1.13;;;13.60;1.00;;;;;;5111944;28;20428;-59
2022/04/16 13:04:18;;;;;;;1.30;1.03;;;13.70;1.00;;;;;;5111261;28;20224;-59
2022/04/16 13:06:44;;;;;;;1.77;1.30;;;;;;;;;;5111612;28;20213;-58
2022/04/16 13:09:09;;;;;;;4.07;2.33;;;14.20;1.00;;;;;;5111211;28;20651;-59
2022/04/16 13:11:37;;;;;;;2.97;1.60;;;14.10;1.00;;;;;;5111604;28;20427;-58
2022/04/16 13:14:02;;;;;;;2.10;1.37;;;14.10;1.00;;;;;;5111211;28;20287;-61
2022/04/16 13:16:28;;;;;;;2.57;1.27;;;13.90;1.00;;;;;;5111426;28;20451;-58
2022/04/16 13:18:53;;;;;;;1.20;1.10;;;13.80;1.00;;;;;;5111355;28;20174;-58
2022/04/16 13:21:20;;;;;;;1.37;1.10;;;;;;;;;;5111314;28;20186;-57
2022/04/16 13:23:46;;;;;;;1.20;1.10;;;13.60;1.00;;;;;;5111417;28;20193;-59
2022/04/16 13:26:12;;;;;;;1.53;0.97;;;13.50;1.00;;;;;;5111131;28;20436;-59
2022/04/16 13:28:37;;;;;;;1.90;1.60;;;13.70;1.00;;;;;;5111053;28;20173;-58
2022/04/16 13:31:06;;;;;;;1.33;1.23;;;13.70;1.00;;;;;;5111299;28;20189;-58
2022/04/16 13:33:32;;;;;;;2.30;1.27;;;13.80;1.00;;;;;;5111024;28;20666;-58